sensor_id;sensor_type;location;lat;lon;timestamp;temperature;humidity
74822;DHT22;63353;48.702;8.884;2024-03-02T00:00:13;4.50;99.90
74822;DHT22;63353;48.702;8.884;2024-03-02T00:02:46;4.50;99.90
74822;DHT22;63353;48.702;8.884;2024-03-02T00:05:19;4.50;99.90
74822;DHT22;63353;48.702;8.884;2024-03-02T00:07:46;4.50;99.90
74822;DHT22;63353;48.702;8.884;2024-03-02T00:10:20;4.50;99.90
74822;DHT22;63353;48.702;8.884;2024-03-02T00:12:51;4.60;99.90
74822;DHT22;63353;48.702;8.884;2024-03-02T00:18:02;4.60;99.90
74822;DHT22;63353;48.702;8.884;2024-03-02T00:20:29;4.70;99.90
74822;DHT22;63353;48.702;8.884;2024-03-02T00:23:08;4.80;99.90
74822;DHT22;63353;48.702;8.884;2024-03-02T00:25:43;4.80;99.90
74822;DHT22;63353;48.702;8.884;2024-03-02T00:28:40;4.90;99.90
74822;DHT22;63353;48.702;8.884;2024-03-02T00:31:07;4.70;99.90
74822;DHT22;63353;48.702;8.884;2024-03-02T00:33:40;4.70;99.90
74822;DHT22;63353;48.702;8.884;2024-03-02T00:36:07;4.70;99.90
74822;DHT22;63353;48.702;8.884;2024-03-02T00:38:34;4.70;99.90
74822;DHT22;63353;48.702;8.884;2024-03-02T00:41:28;4.60;99.90
74822;DHT22;63353;48.702;8.884;2024-03-02T00:44:07;4.60;99.90
74822;DHT22;63353;48.702;8.884;2024-03-02T00:46:42;4.60;99.90
74822;DHT22;63353;48.702;8.884;2024-03-02T00:49:21;4.50;99.90
74822;DHT22;63353;48.702;8.884;2024-03-02T00:51:48;4.50;99.90
74822;DHT22;63353;48.702;8.884;2024-03-02T00:54:14;4.50;99.90
74822;DHT22;63353;48.702;8.884;2024-03-02T00:56:41;4.60;99.90
74822;DHT22;63353;48.702;8.884;2024-03-02T00:59:07;4.50;99.90
74822;DHT22;63353;48.702;8.884;2024-03-02T01:01:34;4.50;99.90
74822;DHT22;63353;48.702;8.884;2024-03-02T01:04:00;4.60;99.90
74822;DHT22;63353;48.702;8.884;2024-03-02T01:06:27;4.50;99.90
74822;DHT22;63353;48.702;8.884;2024-03-02T01:08:53;4.60;99.90
74822;DHT22;63353;48.702;8.884;2024-03-02T01:11:18;4.70;99.90
74822;DHT22;63353;48.702;8.884;2024-03-02T01:13:45;4.70;99.90
74822;DHT22;63353;48.702;8.884;2024-03-02T01:16:11;4.80;99.90
74822;DHT22;63353;48.702;8.884;2024-03-02T01:18:37;4.70;99.90
74822;DHT22;63353;48.702;8.884;2024-03-02T01:21:03;4.60;99.90
74822;DHT22;63353;48.702;8.884;2024-03-02T01:23:28;4.60;99.90
74822;DHT22;63353;48.702;8.884;2024-03-02T01:25:54;4.60;99.90
74822;DHT22;63353;48.702;8.884;2024-03-02T01:28:20;4.60;99.90
74822;DHT22;63353;48.702;8.884;2024-03-02T01:30:47;4.60;99.90
74822;DHT22;63353;48.702;8.884;2024-03-02T01:33:12;4.60;99.90
74822;DHT22;63353;48.702;8.884;2024-03-02T01:35:38;4.60;99.90
74822;DHT22;63353;48.702;8.884;2024-03-02T01:38:04;4.60;99.90
74822;DHT22;63353;48.702;8.884;2024-03-02T01:40:36;4.60;99.90
74822;DHT22;63353;48.702;8.884;2024-03-02T01:43:03;4.50;99.90
74822;DHT22;63353;48.702;8.884;2024-03-02T01:45:29;4.50;99.90
74822;DHT22;63353;48.702;8.884;2024-03-02T01:47:55;4.50;99.90
74822;DHT22;63353;48.702;8.884;2024-03-02T01:50:28;4.50;99.90
74822;DHT22;63353;48.702;8.884;2024-03-02T01:52:56;4.40;99.90
74822;DHT22;63353;48.702;8.884;2024-03-02T01:55:21;4.30;99.90
74822;DHT22;63353;48.702;8.884;2024-03-02T01:57:49;4.30;99.90
74822;DHT22;63353;48.702;8.884;2024-03-02T02:00:19;4.20;99.90
74822;DHT22;63353;48.702;8.884;2024-03-02T02:02:46;4.20;99.90
74822;DHT22;63353;48.702;8.884;2024-03-02T02:05:12;4.20;99.90
74822;DHT22;63353;48.702;8.884;2024-03-02T02:07:41;4.10;99.90
74822;DHT22;63353;48.702;8.884;2024-03-02T02:10:09;4.00;99.90
74822;DHT22;63353;48.702;8.884;2024-03-02T02:12:35;4.00;99.90
74822;DHT22;63353;48.702;8.884;2024-03-02T02:15:00;4.00;99.90
74822;DHT22;63353;48.702;8.884;2024-03-02T02:17:28;4.00;99.90
74822;DHT22;63353;48.702;8.884;2024-03-02T02:19:53;4.00;99.90
74822;DHT22;63353;48.702;8.884;2024-03-02T02:22:20;4.00;99.90
74822;DHT22;63353;48.702;8.884;2024-03-02T02:24:46;3.90;99.90
74822;DHT22;63353;48.702;8.884;2024-03-02T02:27:11;3.90;99.90
74822;DHT22;63353;48.702;8.884;2024-03-02T02:29:40;3.80;99.90
74822;DHT22;63353;48.702;8.884;2024-03-02T02:32:06;3.80;99.90
74822;DHT22;63353;48.702;8.884;2024-03-02T02:34:32;3.80;99.90
74822;DHT22;63353;48.702;8.884;2024-03-02T02:36:58;3.80;99.90
74822;DHT22;63353;48.702;8.884;2024-03-02T02:39:24;3.70;99.90
74822;DHT22;63353;48.702;8.884;2024-03-02T02:41:50;3.70;99.90
74822;DHT22;63353;48.702;8.884;2024-03-02T02:44:16;3.50;99.90
74822;DHT22;63353;48.702;8.884;2024-03-02T02:46:42;3.50;99.90
74822;DHT22;63353;48.702;8.884;2024-03-02T02:49:08;3.40;99.90
74822;DHT22;63353;48.702;8.884;2024-03-02T02:51:33;3.30;99.90
74822;DHT22;63353;48.702;8.884;2024-03-02T02:53:59;3.30;99.90
74822;DHT22;63353;48.702;8.884;2024-03-02T02:56:25;3.30;99.90
74822;DHT22;63353;48.702;8.884;2024-03-02T02:58:50;3.40;99.90
74822;DHT22;63353;48.702;8.884;2024-03-02T03:01:18;3.30;99.90
74822;DHT22;63353;48.702;8.884;2024-03-02T03:03:44;3.20;99.90
74822;DHT22;63353;48.702;8.884;2024-03-02T03:06:11;3.20;99.90
74822;DHT22;63353;48.702;8.884;2024-03-02T03:08:36;3.30;99.90
74822;DHT22;63353;48.702;8.884;2024-03-02T03:11:03;3.40;99.90
74822;DHT22;63353;48.702;8.884;2024-03-02T03:13:30;3.40;99.90
74822;DHT22;63353;48.702;8.884;2024-03-02T03:15:56;3.40;99.90
74822;DHT22;63353;48.702;8.884;2024-03-02T03:18:22;3.30;99.90
74822;DHT22;63353;48.702;8.884;2024-03-02T03:20:48;3.30;99.90
74822;DHT22;63353;48.702;8.884;2024-03-02T03:23:15;3.30;99.90
74822;DHT22;63353;48.702;8.884;2024-03-02T03:25:43;3.10;99.90
74822;DHT22;63353;48.702;8.884;2024-03-02T03:28:09;3.10;99.90
74822;DHT22;63353;48.702;8.884;2024-03-02T03:30:37;3.00;99.90
74822;DHT22;63353;48.702;8.884;2024-03-02T03:33:03;2.90;99.90
74822;DHT22;63353;48.702;8.884;2024-03-02T03:35:29;3.10;99.90
74822;DHT22;63353;48.702;8.884;2024-03-02T03:37:55;3.20;99.90
74822;DHT22;63353;48.702;8.884;2024-03-02T03:40:21;3.20;99.90
74822;DHT22;63353;48.702;8.884;2024-03-02T03:42:46;3.20;99.90
74822;DHT22;63353;48.702;8.884;2024-03-02T03:45:12;3.10;99.90
74822;DHT22;63353;48.702;8.884;2024-03-02T03:47:37;3.10;99.90
74822;DHT22;63353;48.702;8.884;2024-03-02T03:50:03;3.10;99.90
74822;DHT22;63353;48.702;8.884;2024-03-02T03:52:32;3.00;99.90
74822;DHT22;63353;48.702;8.884;2024-03-02T03:54:58;3.00;99.90
74822;DHT22;63353;48.702;8.884;2024-03-02T03:57:23;3.00;99.90
74822;DHT22;63353;48.702;8.884;2024-03-02T03:59:50;3.00;99.90
74822;DHT22;63353;48.702;8.884;2024-03-02T04:02:17;2.90;99.90
74822;DHT22;63353;48.702;8.884;2024-03-02T04:04:42;3.00;99.90
74822;DHT22;63353;48.702;8.884;2024-03-02T04:07:09;3.00;99.90
74822;DHT22;63353;48.702;8.884;2024-03-02T04:09:37;3.10;99.90
74822;DHT22;63353;48.702;8.884;2024-03-02T04:12:03;3.10;99.90
74822;DHT22;63353;48.702;8.884;2024-03-02T04:14:30;3.20;99.90
74822;DHT22;63353;48.702;8.884;2024-03-02T04:16:55;3.10;99.90
74822;DHT22;63353;48.702;8.884;2024-03-02T04:19:21;3.00;99.90
74822;DHT22;63353;48.702;8.884;2024-03-02T04:21:47;2.90;99.90
74822;DHT22;63353;48.702;8.884;2024-03-02T04:24:12;2.80;99.90
74822;DHT22;63353;48.702;8.884;2024-03-02T04:26:38;2.80;99.90
74822;DHT22;63353;48.702;8.884;2024-03-02T04:29:04;2.80;99.90
74822;DHT22;63353;48.702;8.884;2024-03-02T04:31:29;2.70;99.90
74822;DHT22;63353;48.702;8.884;2024-03-02T04:33:55;2.70;99.90
74822;DHT22;63353;48.702;8.884;2024-03-02T04:36:21;2.70;99.90
74822;DHT22;63353;48.702;8.884;2024-03-02T04:38:49;2.80;99.90
74822;DHT22;63353;48.702;8.884;2024-03-02T04:41:14;2.80;99.90
74822;DHT22;63353;48.702;8.884;2024-03-02T04:43:41;2.90;99.90
74822;DHT22;63353;48.702;8.884;2024-03-02T04:46:07;2.90;99.90
74822;DHT22;63353;48.702;8.884;2024-03-02T04:48:33;3.00;99.90
74822;DHT22;63353;48.702;8.884;2024-03-02T04:50:59;3.00;99.90
74822;DHT22;63353;48.702;8.884;2024-03-02T04:53:25;3.00;99.90
74822;DHT22;63353;48.702;8.884;2024-03-02T04:55:51;2.90;99.90
74822;DHT22;63353;48.702;8.884;2024-03-02T04:58:43;2.80;99.90
74822;DHT22;63353;48.702;8.884;2024-03-02T05:01:09;2.80;99.90
74822;DHT22;63353;48.702;8.884;2024-03-02T05:03:34;2.60;99.90
74822;DHT22;63353;48.702;8.884;2024-03-02T05:06:00;2.60;99.90
74822;DHT22;63353;48.702;8.884;2024-03-02T05:08:25;2.60;99.90
74822;DHT22;63353;48.702;8.884;2024-03-02T05:10:51;2.50;99.90
74822;DHT22;63353;48.702;8.884;2024-03-02T05:13:17;2.50;99.90
74822;DHT22;63353;48.702;8.884;2024-03-02T05:15:44;2.50;99.90
74822;DHT22;63353;48.702;8.884;2024-03-02T05:18:11;2.50;99.90
74822;DHT22;63353;48.702;8.884;2024-03-02T05:20:36;2.60;99.90
74822;DHT22;63353;48.702;8.884;2024-03-02T05:23:02;2.70;99.90
74822;DHT22;63353;48.702;8.884;2024-03-02T05:25:27;2.90;99.90
74822;DHT22;63353;48.702;8.884;2024-03-02T05:27:54;3.00;99.90
74822;DHT22;63353;48.702;8.884;2024-03-02T05:30:21;3.10;99.90
74822;DHT22;63353;48.702;8.884;2024-03-02T05:32:47;3.20;99.90
74822;DHT22;63353;48.702;8.884;2024-03-02T05:35:12;3.30;99.90
74822;DHT22;63353;48.702;8.884;2024-03-02T05:37:38;3.40;99.90
74822;DHT22;63353;48.702;8.884;2024-03-02T05:40:05;3.40;99.90
74822;DHT22;63353;48.702;8.884;2024-03-02T05:42:31;3.40;99.90
74822;DHT22;63353;48.702;8.884;2024-03-02T05:44:57;3.40;99.90
74822;DHT22;63353;48.702;8.884;2024-03-02T05:47:22;3.50;99.90
74822;DHT22;63353;48.702;8.884;2024-03-02T05:49:49;3.40;99.90
74822;DHT22;63353;48.702;8.884;2024-03-02T05:52:15;3.40;99.90
74822;DHT22;63353;48.702;8.884;2024-03-02T05:54:41;3.50;99.90
74822;DHT22;63353;48.702;8.884;2024-03-02T05:57:07;3.50;99.90
74822;DHT22;63353;48.702;8.884;2024-03-02T05:59:47;3.40;99.90
74822;DHT22;63353;48.702;8.884;2024-03-02T06:02:14;3.50;99.90
74822;DHT22;63353;48.702;8.884;2024-03-02T06:04:40;3.40;99.90
74822;DHT22;63353;48.702;8.884;2024-03-02T06:07:06;3.50;99.90
74822;DHT22;63353;48.702;8.884;2024-03-02T06:09:31;3.40;99.90
74822;DHT22;63353;48.702;8.884;2024-03-02T06:11:58;3.40;99.90
74822;DHT22;63353;48.702;8.884;2024-03-02T06:14:25;3.40;99.90
74822;DHT22;63353;48.702;8.884;2024-03-02T06:16:51;3.40;99.90
74822;DHT22;63353;48.702;8.884;2024-03-02T06:19:16;3.40;99.90
74822;DHT22;63353;48.702;8.884;2024-03-02T06:21:43;3.40;99.90
74822;DHT22;63353;48.702;8.884;2024-03-02T06:24:08;3.40;99.90
74822;DHT22;63353;48.702;8.884;2024-03-02T06:26:36;3.40;99.90
74822;DHT22;63353;48.702;8.884;2024-03-02T06:29:02;3.40;99.90
74822;DHT22;63353;48.702;8.884;2024-03-02T06:31:28;3.40;99.90
74822;DHT22;63353;48.702;8.884;2024-03-02T06:33:53;3.50;99.90
74822;DHT22;63353;48.702;8.884;2024-03-02T06:36:19;3.50;99.90
74822;DHT22;63353;48.702;8.884;2024-03-02T06:38:44;3.60;99.90
74822;DHT22;63353;48.702;8.884;2024-03-02T06:41:10;3.60;99.90
74822;DHT22;63353;48.702;8.884;2024-03-02T06:43:36;3.70;99.90
74822;DHT22;63353;48.702;8.884;2024-03-02T06:46:03;3.70;99.90
74822;DHT22;63353;48.702;8.884;2024-03-02T06:48:30;3.70;99.90
74822;DHT22;63353;48.702;8.884;2024-03-02T06:50:55;3.70;99.90
74822;DHT22;63353;48.702;8.884;2024-03-02T06:53:22;3.70;99.90
74822;DHT22;63353;48.702;8.884;2024-03-02T06:55:48;3.60;99.90
74822;DHT22;63353;48.702;8.884;2024-03-02T06:58:14;3.70;99.90
74822;DHT22;63353;48.702;8.884;2024-03-02T07:00:44;3.70;99.90
74822;DHT22;63353;48.702;8.884;2024-03-02T07:03:10;3.80;99.90
74822;DHT22;63353;48.702;8.884;2024-03-02T07:05:35;3.80;99.90
74822;DHT22;63353;48.702;8.884;2024-03-02T07:08:01;3.80;99.90
74822;DHT22;63353;48.702;8.884;2024-03-02T07:10:28;3.80;99.90
74822;DHT22;63353;48.702;8.884;2024-03-02T07:12:53;3.90;99.90
74822;DHT22;63353;48.702;8.884;2024-03-02T07:15:19;3.80;99.90
74822;DHT22;63353;48.702;8.884;2024-03-02T07:18:08;3.80;99.90
74822;DHT22;63353;48.702;8.884;2024-03-02T07:20:34;3.80;99.90
74822;DHT22;63353;48.702;8.884;2024-03-02T07:22:59;3.80;99.90
74822;DHT22;63353;48.702;8.884;2024-03-02T07:25:25;3.90;99.90
74822;DHT22;63353;48.702;8.884;2024-03-02T07:27:51;3.80;99.90
74822;DHT22;63353;48.702;8.884;2024-03-02T07:30:17;3.90;99.90
74822;DHT22;63353;48.702;8.884;2024-03-02T07:32:45;3.90;99.90
74822;DHT22;63353;48.702;8.884;2024-03-02T07:35:13;3.90;99.90
74822;DHT22;63353;48.702;8.884;2024-03-02T07:37:41;3.90;99.90
74822;DHT22;63353;48.702;8.884;2024-03-02T07:40:09;4.00;99.90
74822;DHT22;63353;48.702;8.884;2024-03-02T07:42:39;4.00;99.90
74822;DHT22;63353;48.702;8.884;2024-03-02T07:45:06;4.00;99.90
74822;DHT22;63353;48.702;8.884;2024-03-02T07:47:34;4.10;99.90
74822;DHT22;63353;48.702;8.884;2024-03-02T07:50:00;4.10;99.90
74822;DHT22;63353;48.702;8.884;2024-03-02T07:52:26;4.20;99.90
74822;DHT22;63353;48.702;8.884;2024-03-02T07:54:51;4.40;99.90
74822;DHT22;63353;48.702;8.884;2024-03-02T07:57:17;4.50;99.90
74822;DHT22;63353;48.702;8.884;2024-03-02T07:59:43;4.50;99.90
74822;DHT22;63353;48.702;8.884;2024-03-02T08:02:08;4.60;99.90
74822;DHT22;63353;48.702;8.884;2024-03-02T08:04:34;4.70;99.90
74822;DHT22;63353;48.702;8.884;2024-03-02T08:07:01;4.80;99.90
74822;DHT22;63353;48.702;8.884;2024-03-02T08:09:27;4.80;99.90
74822;DHT22;63353;48.702;8.884;2024-03-02T08:11:52;5.00;99.90
74822;DHT22;63353;48.702;8.884;2024-03-02T08:14:18;5.00;99.90
74822;DHT22;63353;48.702;8.884;2024-03-02T08:16:44;5.20;99.90
74822;DHT22;63353;48.702;8.884;2024-03-02T08:19:11;5.30;99.90
74822;DHT22;63353;48.702;8.884;2024-03-02T08:21:37;5.40;99.90
74822;DHT22;63353;48.702;8.884;2024-03-02T08:24:02;5.60;99.90
74822;DHT22;63353;48.702;8.884;2024-03-02T08:26:28;5.70;99.90
74822;DHT22;63353;48.702;8.884;2024-03-02T08:28:55;5.80;99.90
74822;DHT22;63353;48.702;8.884;2024-03-02T08:31:21;6.10;99.90
74822;DHT22;63353;48.702;8.884;2024-03-02T08:33:46;6.20;99.90
74822;DHT22;63353;48.702;8.884;2024-03-02T08:36:12;6.40;99.90
74822;DHT22;63353;48.702;8.884;2024-03-02T08:38:38;6.70;99.90
74822;DHT22;63353;48.702;8.884;2024-03-02T08:41:04;6.80;99.90
74822;DHT22;63353;48.702;8.884;2024-03-02T08:43:30;7.00;99.90
74822;DHT22;63353;48.702;8.884;2024-03-02T08:45:56;7.30;99.90
74822;DHT22;63353;48.702;8.884;2024-03-02T08:48:23;7.60;99.90
74822;DHT22;63353;48.702;8.884;2024-03-02T08:50:48;7.80;99.90
74822;DHT22;63353;48.702;8.884;2024-03-02T08:53:14;8.00;99.90
74822;DHT22;63353;48.702;8.884;2024-03-02T08:55:46;8.10;99.90
74822;DHT22;63353;48.702;8.884;2024-03-02T08:58:12;8.30;99.90
74822;DHT22;63353;48.702;8.884;2024-03-02T09:00:38;8.40;99.90
74822;DHT22;63353;48.702;8.884;2024-03-02T09:03:04;8.50;99.90
74822;DHT22;63353;48.702;8.884;2024-03-02T09:05:29;8.70;99.90
74822;DHT22;63353;48.702;8.884;2024-03-02T09:07:55;9.00;99.90
74822;DHT22;63353;48.702;8.884;2024-03-02T09:10:21;9.10;99.90
74822;DHT22;63353;48.702;8.884;2024-03-02T09:12:48;9.30;99.90
74822;DHT22;63353;48.702;8.884;2024-03-02T09:15:13;9.50;99.90
74822;DHT22;63353;48.702;8.884;2024-03-02T09:17:39;9.70;99.90
74822;DHT22;63353;48.702;8.884;2024-03-02T09:20:06;9.60;99.90
74822;DHT22;63353;48.702;8.884;2024-03-02T09:22:32;9.80;99.90
74822;DHT22;63353;48.702;8.884;2024-03-02T09:24:58;10.10;99.90
74822;DHT22;63353;48.702;8.884;2024-03-02T09:27:24;10.20;99.90
74822;DHT22;63353;48.702;8.884;2024-03-02T09:29:52;10.20;99.90
74822;DHT22;63353;48.702;8.884;2024-03-02T09:32:17;10.40;99.90
74822;DHT22;63353;48.702;8.884;2024-03-02T09:34:47;10.30;99.90
74822;DHT22;63353;48.702;8.884;2024-03-02T09:37:15;10.40;99.90
74822;DHT22;63353;48.702;8.884;2024-03-02T09:39:43;10.30;99.90
74822;DHT22;63353;48.702;8.884;2024-03-02T09:42:10;10.50;99.90
74822;DHT22;63353;48.702;8.884;2024-03-02T09:44:37;10.30;99.90
74822;DHT22;63353;48.702;8.884;2024-03-02T09:47:02;10.30;99.90
74822;DHT22;63353;48.702;8.884;2024-03-02T09:49:29;10.50;99.90
74822;DHT22;63353;48.702;8.884;2024-03-02T09:51:56;10.80;99.90
74822;DHT22;63353;48.702;8.884;2024-03-02T09:54:22;11.00;99.90
74822;DHT22;63353;48.702;8.884;2024-03-02T09:56:50;11.00;99.90
74822;DHT22;63353;48.702;8.884;2024-03-02T09:59:16;11.10;99.90
74822;DHT22;63353;48.702;8.884;2024-03-02T10:01:57;11.20;99.90
74822;DHT22;63353;48.702;8.884;2024-03-02T10:04:25;11.40;99.90
74822;DHT22;63353;48.702;8.884;2024-03-02T10:06:51;11.60;99.90
74822;DHT22;63353;48.702;8.884;2024-03-02T10:09:29;11.60;99.90
74822;DHT22;63353;48.702;8.884;2024-03-02T10:12:04;11.70;99.90
74822;DHT22;63353;48.702;8.884;2024-03-02T10:14:30;11.60;99.90
74822;DHT22;63353;48.702;8.884;2024-03-02T10:17:02;11.80;99.90
74822;DHT22;63353;48.702;8.884;2024-03-02T10:19:29;12.10;99.90
74822;DHT22;63353;48.702;8.884;2024-03-02T10:22:10;12.20;99.90
74822;DHT22;63353;48.702;8.884;2024-03-02T10:24:44;12.20;99.90
74822;DHT22;63353;48.702;8.884;2024-03-02T10:27:25;12.10;99.90
74822;DHT22;63353;48.702;8.884;2024-03-02T10:29:53;12.10;99.90
74822;DHT22;63353;48.702;8.884;2024-03-02T10:32:22;12.30;99.90
74822;DHT22;63353;48.702;8.884;2024-03-02T10:34:48;12.50;99.90
74822;DHT22;63353;48.702;8.884;2024-03-02T10:37:15;12.50;99.90
74822;DHT22;63353;48.702;8.884;2024-03-02T10:39:43;12.60;99.90
74822;DHT22;63353;48.702;8.884;2024-03-02T10:42:11;12.80;99.90
74822;DHT22;63353;48.702;8.884;2024-03-02T10:44:38;12.90;99.90
74822;DHT22;63353;48.702;8.884;2024-03-02T10:47:05;13.10;99.90
74822;DHT22;63353;48.702;8.884;2024-03-02T10:49:31;13.20;99.90
74822;DHT22;63353;48.702;8.884;2024-03-02T10:51:58;13.40;99.90
74822;DHT22;63353;48.702;8.884;2024-03-02T10:54:24;13.50;99.90
74822;DHT22;63353;48.702;8.884;2024-03-02T10:56:58;13.40;99.90
74822;DHT22;63353;48.702;8.884;2024-03-02T10:59:27;13.50;99.90
74822;DHT22;63353;48.702;8.884;2024-03-02T11:02:01;13.70;99.90
74822;DHT22;63353;48.702;8.884;2024-03-02T11:04:31;13.90;99.90
74822;DHT22;63353;48.702;8.884;2024-03-02T11:07:06;14.00;99.90
74822;DHT22;63353;48.702;8.884;2024-03-02T11:09:43;14.10;99.90
74822;DHT22;63353;48.702;8.884;2024-03-02T11:12:18;14.30;99.90
74822;DHT22;63353;48.702;8.884;2024-03-02T11:14:44;14.30;99.90
74822;DHT22;63353;48.702;8.884;2024-03-02T11:17:13;14.50;99.90
74822;DHT22;63353;48.702;8.884;2024-03-02T11:19:44;14.50;99.90
74822;DHT22;63353;48.702;8.884;2024-03-02T11:22:11;14.50;99.90
74822;DHT22;63353;48.702;8.884;2024-03-02T11:24:38;14.60;99.90
74822;DHT22;63353;48.702;8.884;2024-03-02T11:27:05;14.70;99.90
74822;DHT22;63353;48.702;8.884;2024-03-02T11:32:15;14.60;99.90
74822;DHT22;63353;48.702;8.884;2024-03-02T11:34:45;14.90;99.90
74822;DHT22;63353;48.702;8.884;2024-03-02T11:37:12;14.70;99.90
74822;DHT22;63353;48.702;8.884;2024-03-02T11:39:39;14.80;99.90
74822;DHT22;63353;48.702;8.884;2024-03-02T11:42:06;14.70;99.90
74822;DHT22;63353;48.702;8.884;2024-03-02T11:44:34;14.90;99.90
74822;DHT22;63353;48.702;8.884;2024-03-02T11:47:02;15.20;99.90
74822;DHT22;63353;48.702;8.884;2024-03-02T11:49:49;15.30;99.90
74822;DHT22;63353;48.702;8.884;2024-03-02T11:52:16;15.30;99.90
74822;DHT22;63353;48.702;8.884;2024-03-02T11:54:44;15.50;99.90
74822;DHT22;63353;48.702;8.884;2024-03-02T11:57:16;15.60;99.90
74822;DHT22;63353;48.702;8.884;2024-03-02T11:59:42;15.90;99.90
74822;DHT22;63353;48.702;8.884;2024-03-02T12:02:19;15.90;99.90
74822;DHT22;63353;48.702;8.884;2024-03-02T12:04:46;15.80;99.90
74822;DHT22;63353;48.702;8.884;2024-03-02T12:07:18;16.10;99.90
74822;DHT22;63353;48.702;8.884;2024-03-02T12:09:49;16.10;99.90
74822;DHT22;63353;48.702;8.884;2024-03-02T12:12:24;16.00;99.90
74822;DHT22;63353;48.702;8.884;2024-03-02T12:14:51;16.10;99.90
74822;DHT22;63353;48.702;8.884;2024-03-02T12:17:17;16.10;99.90
74822;DHT22;63353;48.702;8.884;2024-03-02T12:19:43;16.10;99.90
74822;DHT22;63353;48.702;8.884;2024-03-02T12:22:09;16.20;99.90
74822;DHT22;63353;48.702;8.884;2024-03-02T12:24:35;16.30;99.90
74822;DHT22;63353;48.702;8.884;2024-03-02T12:27:05;16.60;99.90
74822;DHT22;63353;48.702;8.884;2024-03-02T12:29:31;16.30;99.90
74822;DHT22;63353;48.702;8.884;2024-03-02T12:31:57;16.40;99.90
74822;DHT22;63353;48.702;8.884;2024-03-02T12:34:23;16.10;99.90
74822;DHT22;63353;48.702;8.884;2024-03-02T12:36:50;16.50;99.90
74822;DHT22;63353;48.702;8.884;2024-03-02T12:39:20;16.90;99.90
74822;DHT22;63353;48.702;8.884;2024-03-02T12:41:47;17.30;99.90
74822;DHT22;63353;48.702;8.884;2024-03-02T12:44:19;17.20;99.90
74822;DHT22;63353;48.702;8.884;2024-03-02T12:46:46;17.00;99.90
74822;DHT22;63353;48.702;8.884;2024-03-02T12:49:14;17.00;99.90
74822;DHT22;63353;48.702;8.884;2024-03-02T12:51:43;16.30;99.90
74822;DHT22;63353;48.702;8.884;2024-03-02T12:54:10;16.90;99.90
74822;DHT22;63353;48.702;8.884;2024-03-02T12:56:40;16.60;99.90
74822;DHT22;63353;48.702;8.884;2024-03-02T12:59:18;15.90;99.90
74822;DHT22;63353;48.702;8.884;2024-03-02T13:01:52;15.80;99.90
74822;DHT22;63353;48.702;8.884;2024-03-02T13:04:22;15.40;99.90
74822;DHT22;63353;48.702;8.884;2024-03-02T13:06:49;15.60;99.90
74822;DHT22;63353;48.702;8.884;2024-03-02T13:09:15;15.60;99.90
74822;DHT22;63353;48.702;8.884;2024-03-02T13:11:42;15.70;99.90
74822;DHT22;63353;48.702;8.884;2024-03-02T13:14:10;15.30;99.90
74822;DHT22;63353;48.702;8.884;2024-03-02T13:16:39;15.20;99.90
74822;DHT22;63353;48.702;8.884;2024-03-02T13:19:13;15.10;99.90
74822;DHT22;63353;48.702;8.884;2024-03-02T13:21:39;15.20;99.90
74822;DHT22;63353;48.702;8.884;2024-03-02T13:24:06;15.30;99.90
74822;DHT22;63353;48.702;8.884;2024-03-02T13:26:31;15.10;99.90
74822;DHT22;63353;48.702;8.884;2024-03-02T13:28:59;15.30;99.90
74822;DHT22;63353;48.702;8.884;2024-03-02T13:31:25;14.90;99.90
74822;DHT22;63353;48.702;8.884;2024-03-02T13:33:51;14.80;99.90
74822;DHT22;63353;48.702;8.884;2024-03-02T13:36:16;14.70;99.90
74822;DHT22;63353;48.702;8.884;2024-03-02T13:38:42;14.90;99.90
74822;DHT22;63353;48.702;8.884;2024-03-02T13:41:08;14.90;99.90
74822;DHT22;63353;48.702;8.884;2024-03-02T13:43:34;15.30;99.90
74822;DHT22;63353;48.702;8.884;2024-03-02T13:46:03;15.70;99.90
74822;DHT22;63353;48.702;8.884;2024-03-02T13:48:29;15.90;99.90
74822;DHT22;63353;48.702;8.884;2024-03-02T13:50:54;16.30;99.90
74822;DHT22;63353;48.702;8.884;2024-03-02T13:53:20;17.00;99.90
74822;DHT22;63353;48.702;8.884;2024-03-02T13:55:46;17.70;99.90
74822;DHT22;63353;48.702;8.884;2024-03-02T13:58:15;18.00;99.90
74822;DHT22;63353;48.702;8.884;2024-03-02T14:00:41;18.40;99.90
74822;DHT22;63353;48.702;8.884;2024-03-02T14:03:07;18.30;99.90
74822;DHT22;63353;48.702;8.884;2024-03-02T14:05:33;18.80;99.90
74822;DHT22;63353;48.702;8.884;2024-03-02T14:07:59;19.60;99.90
74822;DHT22;63353;48.702;8.884;2024-03-02T14:10:26;20.10;99.90
74822;DHT22;63353;48.702;8.884;2024-03-02T14:12:54;21.20;99.90
74822;DHT22;63353;48.702;8.884;2024-03-02T14:15:21;21.80;99.90
74822;DHT22;63353;48.702;8.884;2024-03-02T14:17:47;22.10;99.90
74822;DHT22;63353;48.702;8.884;2024-03-02T14:20:14;22.50;99.90
74822;DHT22;63353;48.702;8.884;2024-03-02T14:22:40;23.30;99.90
74822;DHT22;63353;48.702;8.884;2024-03-02T14:25:05;23.10;99.90
74822;DHT22;63353;48.702;8.884;2024-03-02T14:27:32;22.70;99.90
74822;DHT22;63353;48.702;8.884;2024-03-02T14:30:02;22.50;99.90
74822;DHT22;63353;48.702;8.884;2024-03-02T14:32:28;22.60;99.90
74822;DHT22;63353;48.702;8.884;2024-03-02T14:34:59;23.00;99.90
74822;DHT22;63353;48.702;8.884;2024-03-02T14:37:24;23.20;97.10
74822;DHT22;63353;48.702;8.884;2024-03-02T14:39:50;23.30;96.40
74822;DHT22;63353;48.702;8.884;2024-03-02T14:42:16;23.00;95.10
74822;DHT22;63353;48.702;8.884;2024-03-02T14:44:41;22.60;95.30
74822;DHT22;63353;48.702;8.884;2024-03-02T14:47:08;22.10;96.90
74822;DHT22;63353;48.702;8.884;2024-03-02T14:49:34;21.70;97.40
74822;DHT22;63353;48.702;8.884;2024-03-02T14:52:03;21.80;98.30
74822;DHT22;63353;48.702;8.884;2024-03-02T14:54:29;21.60;97.30
74822;DHT22;63353;48.702;8.884;2024-03-02T14:56:54;22.00;97.40
74822;DHT22;63353;48.702;8.884;2024-03-02T14:59:22;22.10;96.30
74822;DHT22;63353;48.702;8.884;2024-03-02T15:01:47;22.20;95.70
74822;DHT22;63353;48.702;8.884;2024-03-02T15:04:14;22.00;94.90
74822;DHT22;63353;48.702;8.884;2024-03-02T15:06:42;20.60;96.70
74822;DHT22;63353;48.702;8.884;2024-03-02T15:09:08;20.00;97.10
74822;DHT22;63353;48.702;8.884;2024-03-02T15:11:35;19.40;97.10
74822;DHT22;63353;48.702;8.884;2024-03-02T15:14:00;18.80;98.00
74822;DHT22;63353;48.702;8.884;2024-03-02T15:16:26;18.30;97.60
74822;DHT22;63353;48.702;8.884;2024-03-02T15:18:53;17.90;99.30
74822;DHT22;63353;48.702;8.884;2024-03-02T15:21:19;17.50;98.80
74822;DHT22;63353;48.702;8.884;2024-03-02T15:23:45;17.10;98.80
74822;DHT22;63353;48.702;8.884;2024-03-02T15:26:10;16.90;99.90
74822;DHT22;63353;48.702;8.884;2024-03-02T15:28:39;16.60;99.90
74822;DHT22;63353;48.702;8.884;2024-03-02T15:31:04;16.30;99.90
74822;DHT22;63353;48.702;8.884;2024-03-02T15:33:30;16.30;99.90
74822;DHT22;63353;48.702;8.884;2024-03-02T15:35:59;16.10;99.90
74822;DHT22;63353;48.702;8.884;2024-03-02T15:38:29;15.90;99.90
74822;DHT22;63353;48.702;8.884;2024-03-02T15:40:54;15.80;99.90
74822;DHT22;63353;48.702;8.884;2024-03-02T15:43:20;15.60;99.90
74822;DHT22;63353;48.702;8.884;2024-03-02T15:45:45;15.50;99.90